Georg Jacob — A8XG5 — position and weather

sailwx.info

Track history (hours):
 
Tides and Currents Weather Stations Pressure Air Temp Water Temp Dewpoint Dewpoint Depression Visibility Wind Speed Wind Dir Waves Ship Positions

Georg Jacob

Last reported at 2015-Jun-18 04:04 UTC. Time now 2015-Sep-01 06:01 UTC.
Position N 27°35' W 015°19'.
Warning: this ship's position is months out of date.

Length 229 m; draft 12.9 m.

Type: Tanker. MMSI: 636092136.

Date/timePositionNaut miles runAvg speedWind from/ knotsBaromVisibWave heightAir tempDewpointWater temp
2015-Jun-18 04:04N 27°35' W 015°19'713.4
2015-Jun-18 03:33N 27°41' W 015°15'1313.5
2015-Jun-18 02:33N 27°52' W 015°07'1413.7
2015-Jun-18 01:33N 28°05' W 015°01'1413.7
2015-Jun-18 00:33N 28°18' W 014°56'1414.0
2015-Jun-17 23:33N 28°32' W 014°52'1413.8
2015-Jun-17 22:33N 28°45' W 014°48'1414.0
2015-Jun-17 21:33N 28°59' W 014°44'1414.0
2015-Jun-17 20:32N 29°12' W 014°40'1413.9
2015-Jun-17 19:33N 29°26' W 014°36'1413.9
2015-Jun-17 18:34N 29°39' W 014°32'1413.7
2015-Jun-17 17:34N 29°52' W 014°28'1413.5
2015-Jun-17 16:33N 30°05' W 014°24'25113.7
2015-Jun-16 22:10N 34°08' W 013°08'2813.3
2015-Jun-16 20:04N 34°35' W 012°60'713.0
2015-Jun-16 19:33N 34°41' W 012°58'1913.1
2015-Jun-16 18:08N 34°60' W 012°52'  
2015-Jun-13 16:22N 49°48' W 003°26'1112.0
2015-Jun-13 15:29N 49°54' W 003°12'1312.3
2015-Jun-13 14:24N 49°60' W 002°53'1713.5
2015-Jun-13 13:06N 50°04' W 002°27'1615.2
2015-Jun-13 12:04N 50°08' W 002°03'1116.2
2015-Jun-13 11:24N 50°11' W 001°47'1315.1
2015-Jun-13 10:31N 50°16' W 001°27'1515.2
2015-Jun-13 09:31N 50°19' W 001°04'1513.9
2015-Jun-13 08:25N 50°23' W 000°41'1112.8
2015-Jun-13 07:32N 50°26' W 000°24'1611.7
2015-Jun-13 06:08N 50°30' E 000°01'710.9
2015-Jun-13 05:32N 50°32' E 000°11'1110.9
2015-Jun-13 04:33N 50°35' E 000°27'1212.0
2015-Jun-13 03:33N 50°40' E 000°44'1313.2
2015-Jun-13 02:33N 50°48' E 001°01'1313.5
2015-Jun-13 01:33N 50°58' E 001°15'1312.7
2015-Jun-13 00:33N 51°06' E 001°30'1211.6
2015-Jun-12 23:33N 51°13' E 001°45'1111.4
2015-Jun-12 22:34N 51°23' E 001°53'1111.4
2015-Jun-12 21:33N 51°33' E 002°03'1212.3
2015-Jun-12 20:33N 51°42' E 002°17'1312.9
2015-Jun-12 19:33N 51°52' E 002°30'1914.3
2015-Jun-12 18:15N 52°06' E 002°50'3814.1
2015-Jun-12 15:32N 52°30' E 003°39'1313.1
2015-Jun-12 14:33N 52°31' E 003°60'1211.8
2015-Jun-12 13:33N 52°30' E 004°19'5 5.0
2015-Jun-12 12:33N 52°31' E 004°27'3 2.6
2015-Jun-12 11:33N 52°29' E 004°28'5 5.5
2015-Jun-12 10:34N 52°28' E 004°37'3 3.0
2015-Jun-12 09:34N 52°27' E 004°41'3 3.0
2015-Jun-12 08:29N 52°25' E 004°45'0 0.0
2015-Jun-12 07:32N 52°25' E 004°45'0 0.0
2015-Jun-12 06:32N 52°25' E 004°45'0 0.0
2015-Jun-12 05:29N 52°25' E 004°45'0 0.0
2015-Jun-12 04:32N 52°25' E 004°45'0 0.0
2015-Jun-12 03:32N 52°25' E 004°45'0 0.0
2015-Jun-12 02:32N 52°25' E 004°45'0 0.0
2015-Jun-12 01:32N 52°25' E 004°45'0 0.0
2015-Jun-12 00:32N 52°25' E 004°45'0 0.0
2015-Jun-11 23:29N 52°25' E 004°45'0 0.0
2015-Jun-11 22:32N 52°25' E 004°45'0 0.0
2015-Jun-11 21:29N 52°25' E 004°45'0 0.0
2015-Jun-11 20:32N 52°25' E 004°45'0 0.0
2015-Jun-11 19:32N 52°25' E 004°45'0 0.0
2015-Jun-11 18:32N 52°25' E 004°45'0 0.0
2015-Jun-11 17:32N 52°25' E 004°45'0 0.0
2015-Jun-11 16:32N 52°25' E 004°45'0 0.0
2015-Jun-11 15:32N 52°25' E 004°45'0 0.0
2015-Jun-11 14:29N 52°25' E 004°45'0 0.0
2015-Jun-11 13:32N 52°25' E 004°45'0 0.0
2015-Jun-11 12:32N 52°25' E 004°45'0 0.0
2015-Jun-11 11:29N 52°25' E 004°45'0 0.0
2015-Jun-11 10:26N 52°25' E 004°45'0 0.0
2015-Jun-11 09:32N 52°25' E 004°45'0 0.0
2015-Jun-11 08:29N 52°25' E 004°45'0 0.0
2015-Jun-11 07:32N 52°25' E 004°45'0 0.0
2015-Jun-11 06:32N 52°25' E 004°45'0 0.0
2015-Jun-11 05:29N 52°25' E 004°45'0 0.0
2015-Jun-11 04:32N 52°25' E 004°45'0 0.0
2015-Jun-11 03:32N 52°25' E 004°45'0 0.0
2015-Jun-11 02:29N 52°25' E 004°45'0 0.0
2015-Jun-11 01:32N 52°25' E 004°45'0 0.0
2015-Jun-11 00:26N 52°25' E 004°45'0 0.0
2015-Jun-10 23:29N 52°25' E 004°45'0 0.0
2015-Jun-10 22:32N 52°25' E 004°45'0 0.0
2015-Jun-10 21:32N 52°25' E 004°45'0 0.0
2015-Jun-10 20:32N 52°25' E 004°45'0 0.0
2015-Jun-10 19:32N 52°25' E 004°45'0 0.0
2015-Jun-10 18:29N 52°25' E 004°45'0 0.0
2015-Jun-10 17:32N 52°25' E 004°45'0 0.0
2015-Jun-10 16:32N 52°25' E 004°45'0 0.0
2015-Jun-10 15:29N 52°25' E 004°45'0 0.0
2015-Jun-10 14:32N 52°25' E 004°45'0 0.0
2015-Jun-10 13:32N 52°25' E 004°45'0 0.0
2015-Jun-10 12:32N 52°25' E 004°45'0 0.0
2015-Jun-10 11:32N 52°25' E 004°45'0 0.0
2015-Jun-10 10:32N 52°25' E 004°45'0 0.0
2015-Jun-10 09:32N 52°25' E 004°45'0 0.0
2015-Jun-10 08:32N 52°25' E 004°45'0 0.0
2015-Jun-10 07:32N 52°25' E 004°45'0 0.0
2015-Jun-10 06:32N 52°25' E 004°45'0 0.0
2015-Jun-10 05:32N 52°25' E 004°45'0 0.0
2015-Jun-10 04:32N 52°25' E 004°45'0 0.0
2015-Jun-10 03:32N 52°25' E 004°45'0 0.0
2015-Jun-10 02:32N 52°25' E 004°45'0 0.0
2015-Jun-10 01:29N 52°25' E 004°45'0 0.0
2015-Jun-10 00:32N 52°25' E 004°45'0 0.0
2015-Jun-09 23:32N 52°25' E 004°45'0 0.0
2015-Jun-09 22:32N 52°25' E 004°45'0 0.0
2015-Jun-09 21:32N 52°25' E 004°45'0 0.0
2015-Jun-09 20:32N 52°25' E 004°45'0 0.0
2015-Jun-09 19:26N 52°25' E 004°45'0 0.0
2015-Jun-09 18:32N 52°25' E 004°45'0 0.0
2015-Jun-09 17:29N 52°25' E 004°45'0 0.0
2015-Jun-09 16:32N 52°25' E 004°45'0 0.0
2015-Jun-09 15:32N 52°25' E 004°45'0 0.0
2015-Jun-09 14:32N 52°25' E 004°45'0 0.0
2015-Jun-09 13:26N 52°25' E 004°45'0 0.0
2015-Jun-09 12:32N 52°25' E 004°45'0 0.0
2015-Jun-09 11:32N 52°25' E 004°45'0 0.0
2015-Jun-09 10:32N 52°25' E 004°45'0 0.0
2015-Jun-09 09:29N 52°25' E 004°45'0 0.0
2015-Jun-09 08:32N 52°25' E 004°45'0 0.0
2015-Jun-09 07:32N 52°25' E 004°45'0 0.0
2015-Jun-09 06:32N 52°25' E 004°45'0 0.0
2015-Jun-09 05:32N 52°25' E 004°45'0 0.0
2015-Jun-09 04:32N 52°25' E 004°45'0 0.0
2015-Jun-09 03:29N 52°25' E 004°45'0 0.0
2015-Jun-09 02:32N 52°25' E 004°45'0 0.0
2015-Jun-09 01:29N 52°25' E 004°45'0 0.0
2015-Jun-09 00:32N 52°25' E 004°45'0 0.0
2015-Jun-08 23:32N 52°25' E 004°45'0 0.0
2015-Jun-08 22:32N 52°25' E 004°45'0 0.0
2015-Jun-08 21:32N 52°25' E 004°45'0 0.0
2015-Jun-08 20:32N 52°25' E 004°45'0 0.0
2015-Jun-08 19:32N 52°25' E 004°45'0 0.0
2015-Jun-08 18:32N 52°25' E 004°45'0 0.0
2015-Jun-08 17:32N 52°25' E 004°45'0 0.0
2015-Jun-08 16:32N 52°25' E 004°45'0 0.0
2015-Jun-08 15:32N 52°25' E 004°45'0 0.0
2015-Jun-08 14:32N 52°25' E 004°45'0 0.0
2015-Jun-08 13:32N 52°25' E 004°45'0 0.0
2015-Jun-08 12:32N 52°25' E 004°45'0 0.0
2015-Jun-08 11:32N 52°25' E 004°45'0 0.0
2015-Jun-08 10:32N 52°25' E 004°45'0 0.0
2015-Jun-08 09:32N 52°25' E 004°45'0 0.0
2015-Jun-08 08:32N 52°25' E 004°45'0 0.0
2015-Jun-08 07:32N 52°25' E 004°45'0 0.0
2015-Jun-08 06:32N 52°25' E 004°45'0 0.0
2015-Jun-08 05:32N 52°25' E 004°45'0 0.0
2015-Jun-08 04:32N 52°25' E 004°45'  
Track history (hours):
 
Tides and Currents Weather Stations Pressure Air Temp Water Temp Dewpoint Dewpoint Depression Visibility Wind Speed Wind Dir Waves Ship Positions

Georg Jacob

Last reported at 2015-Jun-18 04:04 UTC. Time now 2015-Sep-01 06:01 UTC.
Position N 27°35' W 015°19'.
Warning: this ship's position is months out of date.

Length 229 m; draft 12.9 m.

Type: Tanker. MMSI: 636092136.

Date/timePositionNaut miles runAvg speedWind from/ knotsBaromVisibWave heightAir tempDewpointWater temp
2015-Jun-18 04:04N 27°35' W 015°19'713.4
2015-Jun-18 03:33N 27°41' W 015°15'1313.5
2015-Jun-18 02:33N 27°52' W 015°07'1413.7
2015-Jun-18 01:33N 28°05' W 015°01'1413.7
2015-Jun-18 00:33N 28°18' W 014°56'1414.0
2015-Jun-17 23:33N 28°32' W 014°52'1413.8
2015-Jun-17 22:33N 28°45' W 014°48'1414.0
2015-Jun-17 21:33N 28°59' W 014°44'1414.0
2015-Jun-17 20:32N 29°12' W 014°40'1413.9
2015-Jun-17 19:33N 29°26' W 014°36'1413.9
2015-Jun-17 18:34N 29°39' W 014°32'1413.7
2015-Jun-17 17:34N 29°52' W 014°28'1413.5
2015-Jun-17 16:33N 30°05' W 014°24'25113.7
2015-Jun-16 22:10N 34°08' W 013°08'2813.3
2015-Jun-16 20:04N 34°35' W 012°60'713.0
2015-Jun-16 19:33N 34°41' W 012°58'1913.1
2015-Jun-16 18:08N 34°60' W 012°52'  
2015-Jun-13 16:22N 49°48' W 003°26'1112.0
2015-Jun-13 15:29N 49°54' W 003°12'1312.3
2015-Jun-13 14:24N 49°60' W 002°53'1713.5
2015-Jun-13 13:06N 50°04' W 002°27'1615.2
2015-Jun-13 12:04N 50°08' W 002°03'1116.2
2015-Jun-13 11:24N 50°11' W 001°47'1315.1
2015-Jun-13 10:31N 50°16' W 001°27'1515.2
2015-Jun-13 09:31N 50°19' W 001°04'1513.9
2015-Jun-13 08:25N 50°23' W 000°41'1112.8
2015-Jun-13 07:32N 50°26' W 000°24'1611.7
2015-Jun-13 06:08N 50°30' E 000°01'710.9
2015-Jun-13 05:32N 50°32' E 000°11'1110.9
2015-Jun-13 04:33N 50°35' E 000°27'1212.0
2015-Jun-13 03:33N 50°40' E 000°44'1313.2
2015-Jun-13 02:33N 50°48' E 001°01'1313.5
2015-Jun-13 01:33N 50°58' E 001°15'1312.7
2015-Jun-13 00:33N 51°06' E 001°30'1211.6
2015-Jun-12 23:33N 51°13' E 001°45'1111.4
2015-Jun-12 22:34N 51°23' E 001°53'1111.4
2015-Jun-12 21:33N 51°33' E 002°03'1212.3
2015-Jun-12 20:33N 51°42' E 002°17'1312.9
2015-Jun-12 19:33N 51°52' E 002°30'1914.3
2015-Jun-12 18:15N 52°06' E 002°50'3814.1
2015-Jun-12 15:32N 52°30' E 003°39'1313.1
2015-Jun-12 14:33N 52°31' E 003°60'1211.8
2015-Jun-12 13:33N 52°30' E 004°19'5 5.0
2015-Jun-12 12:33N 52°31' E 004°27'3 2.6
2015-Jun-12 11:33N 52°29' E 004°28'5 5.5
2015-Jun-12 10:34N 52°28' E 004°37'3 3.0
2015-Jun-12 09:34N 52°27' E 004°41'3 3.0
2015-Jun-12 08:29N 52°25' E 004°45'0 0.0
2015-Jun-12 07:32N 52°25' E 004°45'0 0.0
2015-Jun-12 06:32N 52°25' E 004°45'0 0.0
2015-Jun-12 05:29N 52°25' E 004°45'0 0.0
2015-Jun-12 04:32N 52°25' E 004°45'0 0.0
2015-Jun-12 03:32N 52°25' E 004°45'0 0.0
2015-Jun-12 02:32N 52°25' E 004°45'0 0.0
2015-Jun-12 01:32N 52°25' E 004°45'0 0.0
2015-Jun-12 00:32N 52°25' E 004°45'0 0.0
2015-Jun-11 23:29N 52°25' E 004°45'0 0.0
2015-Jun-11 22:32N 52°25' E 004°45'0 0.0
2015-Jun-11 21:29N 52°25' E 004°45'0 0.0
2015-Jun-11 20:32N 52°25' E 004°45'0 0.0
2015-Jun-11 19:32N 52°25' E 004°45'0 0.0
2015-Jun-11 18:32N 52°25' E 004°45'0 0.0
2015-Jun-11 17:32N 52°25' E 004°45'0 0.0
2015-Jun-11 16:32N 52°25' E 004°45'0 0.0
2015-Jun-11 15:32N 52°25' E 004°45'0 0.0
2015-Jun-11 14:29N 52°25' E 004°45'0 0.0
2015-Jun-11 13:32N 52°25' E 004°45'0 0.0
2015-Jun-11 12:32N 52°25' E 004°45'0 0.0
2015-Jun-11 11:29N 52°25' E 004°45'0 0.0
2015-Jun-11 10:26N 52°25' E 004°45'0 0.0
2015-Jun-11 09:32N 52°25' E 004°45'0 0.0
2015-Jun-11 08:29N 52°25' E 004°45'0 0.0
2015-Jun-11 07:32N 52°25' E 004°45'0 0.0
2015-Jun-11 06:32N 52°25' E 004°45'0 0.0
2015-Jun-11 05:29N 52°25' E 004°45'0 0.0
2015-Jun-11 04:32N 52°25' E 004°45'0 0.0
2015-Jun-11 03:32N 52°25' E 004°45'0 0.0
2015-Jun-11 02:29N 52°25' E 004°45'0 0.0
2015-Jun-11 01:32N 52°25' E 004°45'0 0.0
2015-Jun-11 00:26N 52°25' E 004°45'0 0.0
2015-Jun-10 23:29N 52°25' E 004°45'0 0.0
2015-Jun-10 22:32N 52°25' E 004°45'0 0.0
2015-Jun-10 21:32N 52°25' E 004°45'0 0.0
2015-Jun-10 20:32N 52°25' E 004°45'0 0.0
2015-Jun-10 19:32N 52°25' E 004°45'0 0.0
2015-Jun-10 18:29N 52°25' E 004°45'0 0.0
2015-Jun-10 17:32N 52°25' E 004°45'0 0.0
2015-Jun-10 16:32N 52°25' E 004°45'0 0.0
2015-Jun-10 15:29N 52°25' E 004°45'0 0.0
2015-Jun-10 14:32N 52°25' E 004°45'0 0.0
2015-Jun-10 13:32N 52°25' E 004°45'0 0.0
2015-Jun-10 12:32N 52°25' E 004°45'0 0.0
2015-Jun-10 11:32N 52°25' E 004°45'0 0.0
2015-Jun-10 10:32N 52°25' E 004°45'0 0.0
2015-Jun-10 09:32N 52°25' E 004°45'0 0.0
2015-Jun-10 08:32N 52°25' E 004°45'0 0.0
2015-Jun-10 07:32N 52°25' E 004°45'0 0.0
2015-Jun-10 06:32N 52°25' E 004°45'0 0.0
2015-Jun-10 05:32N 52°25' E 004°45'0 0.0
2015-Jun-10 04:32N 52°25' E 004°45'0 0.0
2015-Jun-10 03:32N 52°25' E 004°45'0 0.0
2015-Jun-10 02:32N 52°25' E 004°45'0 0.0
2015-Jun-10 01:29N 52°25' E 004°45'0 0.0
2015-Jun-10 00:32N 52°25' E 004°45'0 0.0
2015-Jun-09 23:32N 52°25' E 004°45'0 0.0
2015-Jun-09 22:32N 52°25' E 004°45'0 0.0
2015-Jun-09 21:32N 52°25' E 004°45'0 0.0
2015-Jun-09 20:32N 52°25' E 004°45'0 0.0
2015-Jun-09 19:26N 52°25' E 004°45'0 0.0
2015-Jun-09 18:32N 52°25' E 004°45'0 0.0
2015-Jun-09 17:29N 52°25' E 004°45'0 0.0
2015-Jun-09 16:32N 52°25' E 004°45'0 0.0
2015-Jun-09 15:32N 52°25' E 004°45'0 0.0
2015-Jun-09 14:32N 52°25' E 004°45'0 0.0
2015-Jun-09 13:26N 52°25' E 004°45'0 0.0
2015-Jun-09 12:32N 52°25' E 004°45'0 0.0
2015-Jun-09 11:32N 52°25' E 004°45'0 0.0
2015-Jun-09 10:32N 52°25' E 004°45'0 0.0
2015-Jun-09 09:29N 52°25' E 004°45'0 0.0
2015-Jun-09 08:32N 52°25' E 004°45'0 0.0
2015-Jun-09 07:32N 52°25' E 004°45'0 0.0
2015-Jun-09 06:32N 52°25' E 004°45'0 0.0
2015-Jun-09 05:32N 52°25' E 004°45'0 0.0
2015-Jun-09 04:32N 52°25' E 004°45'0 0.0
2015-Jun-09 03:29N 52°25' E 004°45'0 0.0
2015-Jun-09 02:32N 52°25' E 004°45'0 0.0
2015-Jun-09 01:29N 52°25' E 004°45'0 0.0
2015-Jun-09 00:32N 52°25' E 004°45'0 0.0
2015-Jun-08 23:32N 52°25' E 004°45'0 0.0
2015-Jun-08 22:32N 52°25' E 004°45'0 0.0
2015-Jun-08 21:32N 52°25' E 004°45'0 0.0
2015-Jun-08 20:32N 52°25' E 004°45'0 0.0
2015-Jun-08 19:32N 52°25' E 004°45'0 0.0
2015-Jun-08 18:32N 52°25' E 004°45'0 0.0
2015-Jun-08 17:32N 52°25' E 004°45'0 0.0
2015-Jun-08 16:32N 52°25' E 004°45'0 0.0
2015-Jun-08 15:32N 52°25' E 004°45'0 0.0
2015-Jun-08 14:32N 52°25' E 004°45'0 0.0
2015-Jun-08 13:32N 52°25' E 004°45'0 0.0
2015-Jun-08 12:32N 52°25' E 004°45'0 0.0
2015-Jun-08 11:32N 52°25' E 004°45'0 0.0
2015-Jun-08 10:32N 52°25' E 004°45'0 0.0
2015-Jun-08 09:32N 52°25' E 004°45'0 0.0
2015-Jun-08 08:32N 52°25' E 004°45'0 0.0
2015-Jun-08 07:32N 52°25' E 004°45'0 0.0
2015-Jun-08 06:32N 52°25' E 004°45'0 0.0
2015-Jun-08 05:32N 52°25' E 004°45'0 0.0
2015-Jun-08 04:32N 52°25' E 004°45'  

Dump ship's entire track history